Time;durP1;ratioP1;P1;durP2;ratioP2;P2;SDS_P1;SDS_P2;PMS_P1;PMS_P2;Temp;Humidity;BMP_temperature;BMP_pressure;BME280_temperature;BME280_humidity;BME280_pressure;Samples;Min_cycle;Max_cycle;Signal;HPM_P1;HPM_P2
2021/06/09 00:01:15;;;;;;;9.73;8.70;;;18.70;82.60;;;;;;5043466;28;20460;-46
2021/06/09 00:03:43;;;;;;;10.47;9.20;;;18.70;82.70;;;;;;5041283;28;20463;-46
2021/06/09 00:06:11;;;;;;;9.67;8.77;;;18.70;82.70;;;;;;5043911;28;20461;-46
2021/06/09 00:08:39;;;;;;;10.80;8.87;;;18.70;82.70;;;;;;5040489;28;20493;-46
2021/06/09 00:11:08;;;;;;;10.93;9.73;;;18.60;82.80;;;;;;5042473;28;20455;-46
2021/06/09 00:13:37;;;;;;;9.10;8.20;;;18.60;82.90;;;;;;5041379;28;20456;-46
2021/06/09 00:16:12;;;;;;;11.70;9.87;;;18.50;83.00;;;;;;5041539;28;20509;-46
2021/06/09 00:18:41;;;;;;;10.30;8.93;;;18.50;83.10;;;;;;5042305;28;21302;-46
2021/06/09 00:21:09;;;;;;;10.57;9.47;;;18.50;83.20;;;;;;5042832;28;20455;-46
2021/06/09 00:23:38;;;;;;;10.30;9.20;;;18.50;83.00;;;;;;5044914;28;20486;-46
2021/06/09 00:26:07;;;;;;;9.17;8.20;;;18.50;83.00;;;;;;5044380;28;20459;-46
2021/06/09 00:28:37;;;;;;;9.60;8.60;;;18.40;83.10;;;;;;5037786;28;20462;-46
2021/06/09 00:31:06;;;;;;;10.37;9.07;;;18.40;83.20;;;;;;5042339;28;21012;-46
2021/06/09 00:33:35;;;;;;;8.80;7.93;;;18.40;83.30;;;;;;5040621;28;20478;-46
2021/06/09 00:36:04;;;;;;;8.83;7.90;;;18.40;83.30;;;;;;5042007;28;21008;-47
2021/06/09 00:38:33;;;;;;;8.57;7.77;;;18.40;83.00;;;;;;5039466;28;20498;-47
2021/06/09 00:41:02;;;;;;;8.60;7.77;;;18.40;83.00;;;;;;5042367;28;20455;-46
2021/06/09 00:43:34;;;;;;;9.60;8.00;;;18.30;83.00;;;;;;5040250;28;20464;-47
2021/06/09 00:46:08;;;;;;;9.30;8.40;;;18.30;83.00;;;;;;5040981;28;20951;-47
2021/06/09 00:48:40;;;;;;;9.20;8.30;;;18.20;83.00;;;;;;5041943;28;20534;-46
2021/06/09 00:51:18;;;;;;;9.67;8.57;;;18.20;83.00;;;;;;5039648;28;20451;-47
2021/06/09 00:53:55;;;;;;;9.93;8.70;;;18.20;82.90;;;;;;5039206;28;20468;-47
2021/06/09 00:56:25;;;;;;;9.60;8.67;;;18.10;82.80;;;;;;5039838;28;20463;-47
2021/06/09 00:58:54;;;;;;;10.37;9.37;;;18.10;82.90;;;;;;5041002;28;20474;-47
2021/06/09 01:01:25;;;;;;;8.13;7.20;;;18.10;82.90;;;;;;5041283;28;20444;-47
2021/06/09 01:03:54;;;;;;;10.00;8.63;;;18.10;83.00;;;;;;5039768;28;20471;-47
2021/06/09 01:06:22;;;;;;;10.53;8.70;;;18.10;83.00;;;;;;5041018;28;20951;-47
2021/06/09 01:08:52;;;;;;;10.53;8.47;;;18.00;83.10;;;;;;5044846;28;20489;-47
2021/06/09 01:11:23;;;;;;;9.67;8.40;;;18.00;83.20;;;;;;5040782;28;20475;-47
2021/06/09 01:13:53;;;;;;;10.13;8.80;;;18.00;83.40;;;;;;5041319;28;20462;-47
2021/06/09 01:16:24;;;;;;;9.50;8.50;;;18.00;83.40;;;;;;5037087;28;20470;-47
2021/06/09 01:18:53;;;;;;;9.97;8.90;;;18.00;83.40;;;;;;5042157;28;20459;-47
2021/06/09 01:21:26;;;;;;;12.20;9.90;;;18.00;83.30;;;;;;5040127;28;20497;-47
2021/06/09 01:23:55;;;;;;;9.30;8.33;;;18.00;83.10;;;;;;5041786;28;20451;-47
2021/06/09 01:26:25;;;;;;;9.53;8.27;;;18.00;83.20;;;;;;5044048;28;20475;-47
2021/06/09 01:28:58;;;;;;;8.70;7.80;;;18.10;83.50;;;;;;5042194;28;20458;-47
2021/06/09 01:31:26;;;;;;;14.50;9.20;;;18.20;83.10;;;;;;5041579;28;20438;-46
2021/06/09 01:33:57;;;;;;;9.97;8.70;;;18.10;83.10;;;;;;5039371;28;20446;-47
2021/06/09 01:36:25;;;;;;;13.37;8.73;;;18.10;83.20;;;;;;5041661;28;20466;-46
2021/06/09 01:38:53;;;;;;;9.73;8.80;;;18.00;83.30;;;;;;5039699;28;20958;-47
2021/06/09 01:41:23;;;;;;;8.67;7.87;;;18.00;83.40;;;;;;5039708;28;20460;-47
2021/06/09 01:43:52;;;;;;;12.50;8.30;;;18.00;83.60;;;;;;5041452;28;20923;-47
2021/06/09 01:46:21;;;;;;;11.30;10.20;;;18.00;83.60;;;;;;5039346;28;20474;-47
2021/06/09 01:48:49;;;;;;;10.27;9.17;;;18.00;83.30;;;;;;5041212;28;20470;-47
2021/06/09 01:51:18;;;;;;;13.30;8.70;;;18.00;83.30;;;;;;5040257;28;20442;-47
2021/06/09 01:53:47;;;;;;;9.87;8.87;;;18.00;83.30;;;;;;5037882;28;20471;-47
2021/06/09 01:56:16;;;;;;;9.90;8.40;;;18.00;83.40;;;;;;5039305;28;20465;-47
2021/06/09 01:58:44;;;;;;;10.03;8.70;;;18.00;83.40;;;;;;5042358;28;20490;-47
2021/06/09 02:01:13;;;;;;;9.40;8.40;;;18.00;83.50;;;;;;5042409;28;20484;-46
2021/06/09 02:03:42;;;;;;;10.43;9.40;;;18.00;83.60;;;;;;5040138;28;20464;-46
2021/06/09 02:06:10;;;;;;;9.20;8.30;;;18.00;83.40;;;;;;5038806;28;20470;-46
2021/06/09 02:08:38;;;;;;;11.10;8.90;;;18.00;83.60;;;;;;5039716;28;20557;-46
2021/06/09 02:11:06;;;;;;;8.73;7.83;;;18.00;83.80;;;;;;5039327;28;20477;-47
2021/06/09 02:13:35;;;;;;;9.03;8.10;;;18.10;83.60;;;;;;5041805;28;20459;-47
2021/06/09 02:16:04;;;;;;;11.87;9.33;;;18.10;83.60;;;;;;5039177;28;20474;-47
2021/06/09 02:18:32;;;;;;;12.47;10.10;;;18.00;83.60;;;;;;5040953;28;20986;-47
2021/06/09 02:21:01;;;;;;;10.20;9.20;;;18.00;83.80;;;;;;5041940;28;20449;-46
2021/06/09 02:23:31;;;;;;;10.90;9.63;;;18.00;83.80;;;;;;5040907;28;20481;-47
2021/06/09 02:26:01;;;;;;;10.53;9.53;;;18.00;83.90;;;;;;5038312;28;20454;-47
2021/06/09 02:28:33;;;;;;;10.57;8.90;;;18.00;84.10;;;;;;5040237;28;20777;-47
2021/06/09 02:31:01;;;;;;;11.00;9.00;;;17.90;84.20;;;;;;5042585;28;20467;-47
2021/06/09 02:33:30;;;;;;;10.10;9.20;;;18.00;84.30;;;;;;5039205;28;20477;-47
2021/06/09 02:35:58;;;;;;;10.90;9.70;;;18.00;84.10;;;;;;5041599;28;20458;-47
2021/06/09 02:38:27;;;;;;;12.73;9.80;;;18.00;83.80;;;;;;5042001;28;20483;-47
2021/06/09 02:41:00;;;;;;;9.70;8.73;;;18.00;83.80;;;;;;5039252;28;20459;-47
2021/06/09 02:43:31;;;;;;;12.20;9.53;;;18.00;84.00;;;;;;5038494;28;20545;-47
2021/06/09 02:46:19;;;;;;;10.57;9.50;;;17.90;84.20;;;;;;5041177;28;20973;-50
2021/06/09 02:48:55;;;;;;;11.13;10.03;;;17.90;84.40;;;;;;5040690;28;20493;-50
2021/06/09 02:51:28;;;;;;;10.23;9.23;;;17.90;84.40;;;;;;5041039;28;20830;-50
2021/06/09 02:54:40;;;;;;;9.83;8.93;;;17.90;84.50;;;;;;5037477;28;20485;-50
2021/06/09 02:57:21;;;;;;;11.40;9.20;;;17.90;84.40;;;;;;4979008;28;20497;-50
2021/06/09 03:00:11;;;;;;;11.30;10.10;;;17.90;84.50;;;;;;5034815;28;20902;-50
2021/06/09 03:03:03;;;;;;;12.00;10.23;;;17.80;84.60;;;;;;5040480;28;20462;-50
2021/06/09 03:05:47;;;;;;;11.70;10.17;;;17.80;84.70;;;;;;5038511;28;20458;-50
2021/06/09 03:08:32;;;;;;;9.70;8.77;;;17.80;84.70;;;;;;5044472;28;20487;-49
2021/06/09 03:11:23;;;;;;;11.00;9.20;;;17.80;84.50;;;;;;5043494;28;20493;-50
2021/06/09 03:13:59;;;;;;;11.50;10.00;;;17.80;84.30;;;;;;5032569;28;20500;-50
2021/06/09 03:16:42;;;;;;;12.67;10.03;;;17.80;84.30;;;;;;5042960;28;20476;-50
2021/06/09 03:19:18;;;;;;;10.23;9.20;;;17.80;84.30;;;;;;5041575;28;20451;-50
2021/06/09 03:21:53;;;;;;;10.40;9.40;;;17.70;84.30;;;;;;5041739;28;20450;-50
2021/06/09 03:24:35;;;;;;;12.10;10.03;;;17.70;84.50;;;;;;5043594;28;20462;-50
2021/06/09 03:27:15;;;;;;;10.70;9.73;;;17.70;84.60;;;;;;5042916;28;20466;-50
2021/06/09 03:29:43;;;;;;;11.70;9.87;;;17.70;84.60;;;;;;5043116;28;20458;-50
2021/06/09 03:32:51;;;;;;;10.43;9.37;;;17.70;84.70;;;;;;5044089;28;20455;-50
2021/06/09 03:35:27;;;;;;;9.97;8.97;;;17.70;84.80;;;;;;5042261;28;20827;-50
2021/06/09 03:37:56;;;;;;;12.40;10.47;;;17.70;84.70;;;;;;5044919;28;20494;-50
2021/06/09 03:40:35;;;;;;;12.17;9.53;;;17.70;84.70;;;;;;5042776;28;20908;-50
2021/06/09 03:43:08;;;;;;;11.17;10.00;;;17.70;84.70;;;;;;5042589;28;20955;-50
2021/06/09 03:45:45;;;;;;;10.60;9.60;;;17.70;84.80;;;;;;5040709;28;20993;-50
2021/06/09 03:48:16;;;;;;;11.30;10.03;;;17.70;84.90;;;;;;5042830;28;20454;-50
2021/06/09 03:50:46;;;;;;;10.47;9.43;;;17.70;84.90;;;;;;5041942;28;20475;-50
2021/06/09 03:53:14;;;;;;;10.67;9.57;;;17.70;85.00;;;;;;5041651;28;20606;-50
2021/06/09 03:55:45;;;;;;;12.90;9.70;;;17.60;85.00;;;;;;5040014;28;20477;-50
2021/06/09 03:58:15;;;;;;;11.60;10.60;;;17.70;85.10;;;;;;5048880;28;20491;-50
2021/06/09 04:00:46;;;;;;;11.10;10.00;;;17.70;85.20;;;;;;5041566;28;20819;-50
2021/06/09 04:03:17;;;;;;;10.73;9.63;;;17.70;85.20;;;;;;5045400;28;20455;-50
2021/06/09 04:05:47;;;;;;;11.77;10.30;;;17.70;85.20;;;;;;5039656;28;20462;-50
2021/06/09 04:08:16;;;;;;;12.83;10.07;;;17.70;85.30;;;;;;5040755;28;20517;-50
2021/06/09 04:10:47;;;;;;;11.90;10.63;;;17.70;85.20;;;;;;5040945;28;20931;-50
2021/06/09 04:13:16;;;;;;;10.97;9.87;;;17.80;85.00;;;;;;5041521;28;20458;-50
2021/06/09 04:15:46;;;;;;;14.63;12.40;;;17.80;85.10;;;;;;5038684;28;21993;-50
2021/06/09 04:18:16;;;;;;;14.27;11.73;;;17.70;85.20;;;;;;5037964;28;20486;-50
2021/06/09 04:20:47;;;;;;;13.07;11.77;;;17.80;85.30;;;;;;5038201;28;20985;-50
2021/06/09 04:23:16;;;;;;;13.20;11.83;;;17.70;85.30;;;;;;5041937;28;20470;-50
2021/06/09 04:25:44;;;;;;;13.63;12.23;;;17.70;85.40;;;;;;5040771;28;20463;-50
2021/06/09 04:28:13;;;;;;;14.50;13.00;;;17.80;85.40;;;;;;5042044;28;20454;-50
2021/06/09 04:30:41;;;;;;;15.97;12.63;;;17.80;85.40;;;;;;5042271;28;20512;-50
2021/06/09 04:33:11;;;;;;;13.23;11.90;;;17.80;85.40;;;;;;5040688;28;20823;-50
2021/06/09 04:35:44;;;;;;;13.40;11.63;;;17.80;85.40;;;;;;5040993;28;20462;-50
2021/06/09 04:38:18;;;;;;;14.70;12.13;;;17.90;85.40;;;;;;5042997;28;20990;-50
2021/06/09 04:40:49;;;;;;;12.90;11.40;;;17.90;85.30;;;;;;5040078;28;21088;-50
2021/06/09 04:43:18;;;;;;;12.23;10.90;;;17.90;85.30;;;;;;5042933;28;20841;-50
2021/06/09 04:45:45;;;;;;;14.13;12.63;;;17.90;85.20;;;;;;5043575;28;20462;-50
2021/06/09 04:48:16;;;;;;;12.87;11.57;;;18.00;84.50;;;;;;5038525;28;21971;-50
2021/06/09 04:50:49;;;;;;;13.73;12.30;;;18.00;84.40;;;;;;5040205;28;20462;-50
2021/06/09 04:53:18;;;;;;;12.73;11.40;;;18.00;84.40;;;;;;5041539;28;20466;-50
2021/06/09 04:55:52;;;;;;;13.70;11.27;;;18.10;83.90;;;;;;5042507;28;20473;-50
2021/06/09 04:58:23;;;;;;;13.83;11.27;;;18.10;83.70;;;;;;5041674;28;20501;-50
2021/06/09 05:00:52;;;;;;;13.87;11.83;;;18.10;83.80;;;;;;5042092;28;21002;-50
2021/06/09 05:03:20;;;;;;;12.77;11.40;;;18.10;83.80;;;;;;5044224;28;20461;-50
2021/06/09 05:05:50;;;;;;;12.20;10.23;;;18.10;83.90;;;;;;5040958;28;20461;-50
2021/06/09 05:08:18;;;;;;;12.20;11.00;;;18.20;83.80;;;;;;5040530;28;20502;-50
2021/06/09 05:10:47;;;;;;;16.27;11.50;;;18.30;83.70;;;;;;5039758;28;20830;-50
2021/06/09 05:13:40;;;;;;;13.37;12.10;;;18.30;83.70;;;;;;5041034;28;20455;-50
2021/06/09 05:16:13;;;;;;;13.20;11.90;;;18.30;83.80;;;;;;5043574;28;20462;-50
2021/06/09 05:18:44;;;;;;;14.47;12.40;;;18.40;83.70;;;;;;5038825;28;20483;-50
2021/06/09 05:21:13;;;;;;;13.07;11.77;;;18.40;83.50;;;;;;5041815;28;20990;-50
2021/06/09 05:23:44;;;;;;;13.33;10.83;;;18.50;83.20;;;;;;5041773;28;20470;-50
2021/06/09 05:26:15;;;;;;;13.43;11.63;;;18.50;83.20;;;;;;5041314;28;20458;-50
2021/06/09 05:28:49;;;;;;;20.07;12.30;;;18.60;83.10;;;;;;5040414;28;20770;-50
2021/06/09 05:31:19;;;;;;;13.03;11.60;;;18.60;83.10;;;;;;5040606;28;20448;-50
2021/06/09 05:33:48;;;;;;;10.67;9.67;;;18.70;83.00;;;;;;5041884;28;20787;-50
2021/06/09 05:36:18;;;;;;;13.77;11.50;;;18.80;82.80;;;;;;5039361;28;20462;-50
2021/06/09 05:38:46;;;;;;;13.00;11.80;;;18.90;82.40;;;;;;5042630;28;20486;-50
2021/06/09 05:41:16;;;;;;;13.30;12.00;;;18.90;82.00;;;;;;5042123;28;20466;-50
2021/06/09 05:43:44;;;;;;;12.43;11.20;;;19.00;81.50;;;;;;5041499;28;20469;-50
2021/06/09 05:46:12;;;;;;;12.40;11.20;;;19.00;81.40;;;;;;5037140;28;20459;-50
2021/06/09 05:48:41;;;;;;;12.17;10.87;;;19.00;81.40;;;;;;5040391;28;20450;-50
2021/06/09 05:51:10;;;;;;;13.10;11.80;;;19.10;81.30;;;;;;5037716;28;20458;-50
2021/06/09 05:53:38;;;;;;;11.77;10.67;;;19.20;81.40;;;;;;5038782;28;20497;-50
2021/06/09 05:56:07;;;;;;;12.07;10.63;;;19.20;81.50;;;;;;5044002;28;20462;-50
2021/06/09 05:58:38;;;;;;;12.03;10.83;;;19.20;81.30;;;;;;5038501;28;20497;-50
2021/06/09 06:01:10;;;;;;;12.37;11.17;;;19.30;81.10;;;;;;5040250;28;20542;-50
2021/06/09 06:03:40;;;;;;;12.40;11.10;;;19.30;81.20;;;;;;5039222;28;20513;-50
2021/06/09 06:06:10;;;;;;;13.93;12.00;;;19.40;80.80;;;;;;5039945;28;20955;-50
2021/06/09 06:08:41;;;;;;;12.47;11.17;;;19.50;80.80;;;;;;5040006;28;20500;-50
2021/06/09 06:11:12;;;;;;;15.00;12.03;;;19.50;80.60;;;;;;5041219;28;20458;-50
2021/06/09 06:13:41;;;;;;;13.13;11.57;;;19.60;80.20;;;;;;5040547;28;20468;-50
2021/06/09 06:16:15;;;;;;;15.73;10.63;;;19.70;80.20;;;;;;5040015;28;20485;-50
2021/06/09 06:18:47;;;;;;;15.27;10.90;;;19.80;79.60;;;;;;5037323;28;20481;-50
2021/06/09 06:21:17;;;;;;;11.23;10.13;;;19.90;78.80;;;;;;5038485;28;20459;-50
2021/06/09 06:23:47;;;;;;;13.13;10.87;;;19.90;79.00;;;;;;5040257;28;20898;-50
2021/06/09 06:26:20;;;;;;;13.30;11.23;;;19.90;78.80;;;;;;5043482;28;20448;-50
2021/06/09 06:28:50;;;;;;;11.77;10.67;;;20.00;78.80;;;;;;5040440;28;20500;-50
2021/06/09 06:31:24;;;;;;;11.67;10.37;;;20.00;78.60;;;;;;5038504;28;20480;-50
2021/06/09 06:33:56;;;;;;;11.63;10.53;;;20.10;78.60;;;;;;5038964;28;20454;-49
2021/06/09 06:36:25;;;;;;;12.80;11.60;;;20.20;78.60;;;;;;5037598;28;21049;-49
2021/06/09 06:38:54;;;;;;;13.77;10.70;;;20.20;78.20;;;;;;5039467;28;20495;-49
2021/06/09 06:41:23;;;;;;;12.93;10.53;;;20.30;78.10;;;;;;5043969;28;20450;-49
2021/06/09 06:43:51;;;;;;;11.30;10.20;;;20.40;78.30;;;;;;5046627;28;20494;-49
2021/06/09 06:46:22;;;;;;;11.97;10.80;;;20.50;77.40;;;;;;5046621;28;20447;-49
2021/06/09 06:48:55;;;;;;;13.03;11.10;;;20.50;77.10;;;;;;5042456;28;20471;-49
2021/06/09 06:51:24;;;;;;;12.70;11.43;;;20.60;77.10;;;;;;5043870;28;20446;-49
2021/06/09 06:53:56;;;;;;;13.17;11.83;;;20.70;77.00;;;;;;5043468;28;20521;-49
2021/06/09 06:56:26;;;;;;;12.70;11.43;;;20.70;76.90;;;;;;5044411;28;20458;-49
2021/06/09 06:58:54;;;;;;;11.20;10.20;;;20.80;76.80;;;;;;5044560;28;20485;-49
2021/06/09 07:01:31;;;;;;;12.00;10.90;;;20.90;76.20;;;;;;5039544;28;20481;-49
2021/06/09 07:04:00;;;;;;;16.43;11.70;;;21.10;76.10;;;;;;5041328;28;20458;-50
2021/06/09 07:06:29;;;;;;;11.70;10.60;;;21.20;76.00;;;;;;5040707;28;20811;-50
2021/06/09 07:09:18;;;;;;;12.00;10.33;;;21.30;76.20;;;;;;5043052;28;20842;-49
2021/06/09 07:11:48;;;;;;;11.90;10.70;;;21.40;76.20;;;;;;5040739;28;20502;-50
2021/06/09 07:14:17;;;;;;;12.97;11.53;;;21.50;76.10;;;;;;5042007;28;20450;-50
2021/06/09 07:16:47;;;;;;;13.30;11.10;;;21.60;75.60;;;;;;5041411;28;21027;-50
2021/06/09 07:19:17;;;;;;;11.97;10.77;;;21.70;75.50;;;;;;5041563;28;20506;-50
2021/06/09 07:21:45;;;;;;;11.30;10.17;;;21.90;75.40;;;;;;5040176;28;20463;-50
2021/06/09 07:24:14;;;;;;;11.37;10.30;;;22.00;75.50;;;;;;5038637;28;20463;-50
2021/06/09 07:26:46;;;;;;;12.83;10.53;;;22.20;75.10;;;;;;5044549;28;20465;-50
2021/06/09 07:29:22;;;;;;;14.73;10.60;;;22.40;74.60;;;;;;5040237;28;20462;-50
2021/06/09 07:31:51;;;;;;;10.60;9.60;;;22.60;73.70;;;;;;5041529;28;20469;-50
2021/06/09 07:34:19;;;;;;;11.07;9.87;;;22.70;73.20;;;;;;5040782;28;20480;-50
2021/06/09 07:37:13;;;;;;;12.83;11.50;;;22.90;72.90;;;;;;5041179;28;20458;-50
2021/06/09 07:39:46;;;;;;;10.50;9.50;;;23.00;72.70;;;;;;5037469;28;21279;-50
2021/06/09 07:42:20;;;;;;;12.80;11.63;;;23.20;72.00;;;;;;5041384;28;20516;-50
2021/06/09 07:44:59;;;;;;;10.90;9.90;;;23.30;70.30;;;;;;5039348;28;20441;-50
2021/06/09 07:47:29;;;;;;;11.90;10.70;;;23.50;69.40;;;;;;5040330;28;21484;-50
2021/06/09 07:49:59;;;;;;;11.80;10.70;;;23.60;69.70;;;;;;5043442;28;20462;-50
2021/06/09 07:52:29;;;;;;;11.63;10.53;;;23.70;70.00;;;;;;5042922;28;20469;-50
2021/06/09 07:54:58;;;;;;;10.40;9.40;;;23.80;68.90;;;;;;5042992;28;20477;-50
2021/06/09 07:57:29;;;;;;;10.97;9.97;;;23.90;68.70;;;;;;5045884;28;20462;-50
2021/06/09 07:59:58;;;;;;;12.23;10.90;;;24.00;68.60;;;;;;5041228;28;20496;-50
2021/06/09 08:02:26;;;;;;;11.53;10.27;;;24.00;68.10;;;;;;5043653;28;20458;-50
2021/06/09 08:04:54;;;;;;;12.10;10.90;;;24.10;68.30;;;;;;5042217;28;20936;-50
2021/06/09 08:07:22;;;;;;;11.10;10.00;;;24.20;68.20;;;;;;5040038;28;20461;-50
2021/06/09 08:09:54;;;;;;;11.47;10.27;;;24.30;68.00;;;;;;5040265;28;20472;-49
2021/06/09 08:12:22;;;;;;;14.60;11.10;;;24.40;67.60;;;;;;5040330;28;20934;-49
2021/06/09 08:14:51;;;;;;;11.90;10.70;;;24.50;67.20;;;;;;5041699;28;20461;-50
2021/06/09 08:17:22;;;;;;;12.67;11.43;;;24.60;67.50;;;;;;5042531;28;20462;-50
2021/06/09 08:19:51;;;;;;;11.77;10.67;;;24.70;67.40;;;;;;5044924;28;20486;-50
2021/06/09 08:22:19;;;;;;;10.80;9.87;;;24.70;66.50;;;;;;5086277;22;20502;-87
2021/06/09 08:24:46;;;;;;;11.47;10.20;;;24.80;65.80;;;;;;5048077;28;20757;-90
2021/06/09 08:27:12;;;;;;;12.83;11.47;;;24.90;66.20;;;;;;5034386;28;20449;-87
2021/06/09 08:29:39;;;;;;;12.20;11.00;;;25.00;66.00;;;;;;5046461;28;20454;-88
2021/06/09 08:32:09;;;;;;;12.30;10.60;;;25.00;66.00;;;;;;5033887;28;20565;-88
2021/06/09 08:34:36;;;;;;;10.33;9.33;;;25.10;65.40;;;;;;5034180;28;20488;-88
2021/06/09 08:37:03;;;;;;;10.20;9.30;;;25.20;65.10;;;;;;5035823;28;20499;-88
2021/06/09 08:39:31;;;;;;;11.23;10.23;;;25.30;64.80;;;;;;5033765;28;20488;-88
2021/06/09 08:42:02;;;;;;;10.93;9.67;;;25.40;64.30;;;;;;5036054;28;20454;-88
2021/06/09 08:44:34;;;;;;;10.60;9.53;;;25.50;64.80;;;;;;5034286;28;20490;-90
2021/06/09 08:47:03;;;;;;;10.43;9.43;;;25.60;64.70;;;;;;5051598;28;21215;-87
2021/06/09 08:49:30;;;;;;;9.70;8.90;;;25.70;63.30;;;;;;5051012;28;20458;-88
2021/06/09 08:51:58;;;;;;;9.60;8.80;;;25.80;63.20;;;;;;5043780;28;20553;-88
2021/06/09 08:54:26;;;;;;;9.23;8.43;;;25.90;62.40;;;;;;5062552;28;20465;-89
2021/06/09 08:56:53;;;;;;;10.53;9.53;;;26.10;62.60;;;;;;5065639;28;20469;-89
2021/06/09 08:59:24;;;;;;;9.90;8.90;;;26.20;61.90;;;;;;5042826;28;20525;-91
2021/06/09 09:01:54;;;;;;;10.27;9.23;;;26.30;61.80;;;;;;5047580;28;20465;-91
2021/06/09 09:04:22;;;;;;;9.53;8.73;;;26.40;61.30;;;;;;5034159;28;20519;-91
2021/06/09 09:06:54;;;;;;;10.23;9.37;;;26.40;60.90;;;;;;5032826;28;20926;-92
2021/06/09 09:09:23;;;;;;;8.90;8.20;;;26.40;61.00;;;;;;5036043;28;20540;-89
2021/06/09 09:11:50;;;;;;;10.63;9.50;;;26.40;61.10;;;;;;5029438;28;20456;-89
2021/06/09 09:14:18;;;;;;;9.07;8.27;;;26.30;60.80;;;;;;5030285;28;20501;-88
2021/06/09 09:17:01;;;;;;;10.70;9.60;;;26.20;60.90;;;;;;5049185;28;20450;-89
2021/06/09 09:19:30;;;;;;;10.23;9.10;;;26.10;61.40;;;;;;5050738;28;20537;-89
2021/06/09 09:21:57;;;;;;;10.17;9.23;;;26.00;61.40;;;;;;5031361;28;20486;-88
2021/06/09 09:24:39;;;;;;;9.37;8.57;;;26.20;61.30;;;;;;5030256;28;20829;-88
2021/06/09 09:27:06;;;;;;;9.80;8.90;;;26.40;60.90;;;;;;5047011;28;20447;-88
2021/06/09 09:29:34;;;;;;;11.37;10.20;;;26.60;59.50;;;;;;5035108;28;20889;-89
2021/06/09 09:32:05;;;;;;;10.20;9.30;;;26.60;59.50;;;;;;5031604;28;20473;-89
2021/06/09 09:34:43;;;;;;;10.53;9.53;;;26.50;59.50;;;;;;5035302;28;20446;-89
2021/06/09 09:37:24;;;;;;;10.70;9.70;;;26.30;60.10;;;;;;5033050;28;20536;-90
2021/06/09 09:40:05;;;;;;;10.37;9.33;;;26.10;60.40;;;;;;5032097;28;20492;-89
2021/06/09 09:42:35;;;;;;;10.67;9.67;;;25.80;61.20;;;;;;5034646;28;20533;-90
2021/06/09 09:45:16;;;;;;;9.67;8.67;;;25.60;62.10;;;;;;5049358;28;21048;-89
2021/06/09 09:48:07;;;;;;;9.43;8.53;;;25.50;61.70;;;;;;5050894;28;20442;-88
2021/06/09 09:50:37;;;;;;;10.70;9.70;;;25.20;61.70;;;;;;5050364;28;20470;-89
2021/06/09 09:53:25;;;;;;;11.13;10.13;;;25.10;62.80;;;;;;5034836;28;20513;-89
2021/06/09 09:56:10;;;;;;;10.67;9.57;;;25.00;63.00;;;;;;5030566;28;20610;-89
2021/06/09 09:58:40;;;;;;;11.10;10.00;;;24.80;63.60;;;;;;5047591;28;20477;-88
2021/06/09 10:01:12;;;;;;;11.67;10.47;;;24.80;63.30;;;;;;5034073;28;20565;-88
2021/06/09 10:03:41;;;;;;;10.70;9.70;;;24.70;63.50;;;;;;5034350;28;20454;-88
2021/06/09 10:06:24;;;;;;;9.63;8.90;;;24.70;63.80;;;;;;5050756;28;20879;-88
2021/06/09 10:08:53;;;;;;;10.00;9.00;;;24.80;63.80;;;;;;5047118;28;20900;-88
2021/06/09 10:11:22;;;;;;;9.87;8.90;;;24.90;62.60;;;;;;5028812;28;20462;-87
2021/06/09 10:13:49;;;;;;;9.80;9.00;;;25.10;61.80;;;;;;5031404;28;20464;-87
2021/06/09 10:16:27;;;;;;;11.27;10.17;;;25.30;61.50;;;;;;5051626;28;20529;-87
2021/06/09 10:19:01;;;;;;;10.50;9.50;;;25.40;61.80;;;;;;5060454;28;20517;-87
2021/06/09 10:21:29;;;;;;;9.37;8.47;;;25.50;60.30;;;;;;5048999;28;20477;-87
2021/06/09 10:24:07;;;;;;;11.03;9.57;;;25.50;61.70;;;;;;5051636;28;20489;-89
2021/06/09 10:26:33;;;;;;;9.83;9.03;;;25.50;61.90;;;;;;5048396;28;20473;-90
2021/06/09 10:29:08;;;;;;;10.27;9.20;;;25.50;60.40;;;;;;5051200;28;20454;-90
2021/06/09 10:31:38;;;;;;;10.17;9.27;;;25.40;59.90;;;;;;5030633;28;20454;-88
2021/06/09 10:34:05;;;;;;;15.47;8.43;;;25.30;60.10;;;;;;5050110;28;20450;-89
2021/06/09 10:36:37;;;;;;;9.83;9.03;;;25.20;60.50;;;;;;5029142;28;20834;-89
2021/06/09 10:39:05;;;;;;;9.80;8.90;;;25.20;61.10;;;;;;5048373;28;20493;-89
2021/06/09 10:41:32;;;;;;;9.90;8.60;;;25.30;62.40;;;;;;5033218;28;21016;-88
2021/06/09 10:44:03;;;;;;;11.07;9.97;;;25.30;62.30;;;;;;5033606;28;20808;-88
2021/06/09 10:46:34;;;;;;;9.57;8.70;;;25.40;62.60;;;;;;5034459;28;20788;-88
2021/06/09 10:49:03;;;;;;;9.83;9.03;;;25.50;62.30;;;;;;5049122;28;20454;-88
2021/06/09 10:51:30;;;;;;;10.27;9.17;;;25.60;61.20;;;;;;5034329;28;20530;-88
2021/06/09 10:53:59;;;;;;;9.23;8.30;;;25.70;60.90;;;;;;5047282;28;20464;-89
2021/06/09 10:56:27;;;;;;;9.37;8.57;;;25.80;60.00;;;;;;5049895;28;20458;-88
2021/06/09 10:58:54;;;;;;;9.20;8.30;;;25.80;60.30;;;;;;5050795;28;20581;-89
2021/06/09 11:01:24;;;;;;;8.60;7.87;;;25.70;60.80;;;;;;5029418;28;20458;-89
2021/06/09 11:03:55;;;;;;;9.73;8.83;;;25.50;61.70;;;;;;5035151;28;20472;-89
2021/06/09 11:06:40;;;;;;;9.57;8.60;;;25.50;60.20;;;;;;5035919;28;20450;-89
2021/06/09 11:09:33;;;;;;;9.33;8.53;;;25.40;60.10;;;;;;5049351;28;20460;-87
2021/06/09 11:12:13;;;;;;;8.13;7.43;;;25.30;60.90;;;;;;5034296;28;20454;-87
2021/06/09 11:15:02;;;;;;;8.30;7.60;;;25.20;60.10;;;;;;5030307;28;20485;-87
2021/06/09 11:17:41;;;;;;;8.77;7.97;;;25.20;60.90;;;;;;5050816;28;20469;-86
2021/06/09 11:20:14;;;;;;;9.70;8.83;;;25.30;61.60;;;;;;5047381;28;20497;-87
2021/06/09 11:22:46;;;;;;;8.70;7.80;;;25.40;59.60;;;;;;5030135;28;20476;-88
2021/06/09 11:25:15;;;;;;;8.40;7.60;;;25.50;59.90;;;;;;5032434;28;20454;-90
2021/06/09 11:28:01;;;;;;;9.27;8.27;;;25.60;59.70;;;;;;5050998;28;20457;-87
2021/06/09 11:30:28;;;;;;;7.57;6.90;;;25.70;60.10;;;;;;5054595;28;20485;-87
2021/06/09 11:32:57;;;;;;;8.27;7.57;;;25.80;59.20;;;;;;5053230;28;20493;-87
2021/06/09 11:35:44;;;;;;;8.20;7.50;;;25.80;59.00;;;;;;5034315;28;20458;-87
2021/06/09 11:38:14;;;;;;;7.80;7.10;;;25.90;60.60;;;;;;5051523;28;20452;-87
2021/06/09 11:41:22;;;;;;;8.20;7.50;;;26.00;60.70;;;;;;5054232;28;20489;-87
2021/06/09 11:43:56;;;;;;;8.30;7.57;;;26.10;58.80;;;;;;5024719;28;20461;-87
2021/06/09 11:46:27;;;;;;;8.10;7.30;;;26.10;60.10;;;;;;5034745;28;20454;-87
2021/06/09 11:49:03;;;;;;;8.23;7.53;;;26.10;59.10;;;;;;5049177;28;20493;-87
2021/06/09 11:51:32;;;;;;;7.83;7.17;;;26.20;57.90;;;;;;5049107;28;20872;-87
2021/06/09 11:54:05;;;;;;;6.57;6.03;;;26.30;57.80;;;;;;5034389;28;20468;-87
2021/06/09 11:56:40;;;;;;;7.40;6.70;;;26.30;56.50;;;;;;5034973;28;20450;-87
2021/06/09 11:59:18;;;;;;;7.30;6.60;;;26.30;55.00;;;;;;5035298;28;20926;-87
2021/06/09 12:01:46;;;;;;;7.50;6.80;;;26.30;56.00;;;;;;5052546;28;20456;-87
2021/06/09 12:04:21;;;;;;;8.00;7.30;;;26.30;56.10;;;;;;5034053;28;20458;-87
2021/06/09 12:07:02;;;;;;;7.00;6.50;;;26.30;55.80;;;;;;5050192;28;20489;-87
2021/06/09 12:09:41;;;;;;;7.43;6.83;;;26.30;56.70;;;;;;5052444;28;20477;-87
2021/06/09 12:12:13;;;;;;;6.53;6.03;;;26.40;57.30;;;;;;5034897;28;20816;-87
2021/06/09 12:14:43;;;;;;;7.70;7.00;;;26.50;58.10;;;;;;5049610;28;20494;-87
2021/06/09 12:17:24;;;;;;;7.27;6.57;;;26.50;57.00;;;;;;5049840;28;20458;-87
2021/06/09 12:20:00;;;;;;;7.17;6.57;;;26.50;56.10;;;;;;5032766;28;20474;-87
2021/06/09 12:22:31;;;;;;;6.80;6.20;;;26.50;56.40;;;;;;5028002;28;20576;-88
2021/06/09 12:25:05;;;;;;;7.47;6.77;;;26.40;56.40;;;;;;5036349;28;20457;-87
2021/06/09 12:27:33;;;;;;;7.00;6.43;;;26.40;56.50;;;;;;5034674;28;20461;-87
2021/06/09 12:30:03;;;;;;;7.57;6.87;;;26.40;56.90;;;;;;5034739;28;20462;-87
2021/06/09 12:32:35;;;;;;;7.63;6.93;;;26.30;56.50;;;;;;5039251;28;20944;-87
2021/06/09 12:35:11;;;;;;;7.43;6.70;;;26.20;57.50;;;;;;5051087;28;20477;-88
2021/06/09 12:38:40;;;;;;;;;;;;;;;;;;;;;
2021/06/09 12:41:31;;;;;;;6.57;5.97;;;26.20;57.50;;;;;;5058230;22;22000;-48
2021/06/09 12:44:11;;;;;;;6.63;6.13;;;26.20;56.80;;;;;;5024267;28;20460;-48
2021/06/09 12:46:39;;;;;;;6.50;5.90;;;26.20;57.80;;;;;;5026151;28;20457;-48
2021/06/09 12:49:31;;;;;;;6.40;5.80;;;26.20;55.70;;;;;;5029445;28;20468;-48
2021/06/09 12:52:08;;;;;;;6.97;6.47;;;26.20;55.50;;;;;;5025489;28;20470;-48
2021/06/09 12:54:37;;;;;;;5.80;5.30;;;26.20;55.30;;;;;;5029198;28;20458;-48
2021/06/09 12:57:05;;;;;;;6.30;5.80;;;26.20;54.90;;;;;;5025916;28;20448;-48
2021/06/09 12:59:36;;;;;;;6.97;6.47;;;26.10;56.00;;;;;;5028560;28;20454;-48
2021/06/09 13:02:05;;;;;;;6.63;6.10;;;26.20;56.40;;;;;;5025179;28;20471;-48
2021/06/09 13:04:39;;;;;;;6.27;5.60;;;26.20;55.70;;;;;;5026470;28;20451;-47